createdAt,value
2022-12-17T00:00:27.699Z,102132.47
2022-12-17T00:03:17.824Z,102120.09
2022-12-17T00:06:03.382Z,102121.88
2022-12-17T00:08:49.018Z,102126.25
2022-12-17T00:11:34.239Z,102120.84
2022-12-17T00:14:19.017Z,102113.69
2022-12-17T00:17:03.986Z,102121.69
2022-12-17T00:19:48.927Z,102125.25
2022-12-17T00:22:34.110Z,102122.59
2022-12-17T00:25:19.112Z,102134.97
2022-12-17T00:28:04.266Z,102135.91
2022-12-17T00:30:49.446Z,102143.88
2022-12-17T00:33:35.486Z,102145.72
2022-12-17T00:36:20.888Z,102149.31
2022-12-17T00:39:05.835Z,102154.69
2022-12-17T00:41:51.088Z,102152.09
2022-12-17T00:44:36.217Z,102153.00
2022-12-17T00:47:21.035Z,102159.25
2022-12-17T00:50:07.145Z,102160.13
2022-12-17T00:52:52.383Z,102169.88
2022-12-17T00:55:37.441Z,102162.72
2022-12-17T00:58:22.231Z,102162.69
2022-12-17T01:01:07.182Z,102165.25
2022-12-17T01:03:52.316Z,102161.59
2022-12-17T01:06:37.418Z,102172.16
2022-12-17T01:09:22.533Z,102169.47
2022-12-17T01:12:07.232Z,102174.91
2022-12-17T01:14:52.442Z,102174.06
2022-12-17T01:17:37.586Z,102182.03
2022-12-17T01:20:23.051Z,102176.69
2022-12-17T01:23:08.035Z,102181.00
2022-12-17T01:25:52.979Z,102185.41
2022-12-17T01:28:43.366Z,102189.94
2022-12-17T01:31:34.629Z,102189.94
2022-12-17T01:34:20.153Z,102192.59
2022-12-17T01:37:05.988Z,102196.22
2022-12-17T01:39:51.206Z,102199.81
2022-12-17T01:42:36.135Z,102202.47
2022-12-17T01:45:32.262Z,102209.59
2022-12-17T01:48:21.404Z,102199.13
2022-12-17T01:51:11.700Z,102206.31
2022-12-17T01:54:01.621Z,102210.81
2022-12-17T01:56:47.370Z,102218.72
2022-12-17T01:59:33.440Z,102220.50
2022-12-17T02:02:19.020Z,102221.38
2022-12-17T02:05:04.244Z,102219.53
2022-12-17T02:08:08.414Z,102221.28
2022-12-17T02:11:15.799Z,102223.91
2022-12-17T02:14:12.189Z,102228.41
2022-12-17T02:17:05.548Z,102219.59
2022-12-17T02:19:56.765Z,102229.34
2022-12-17T02:22:57.131Z,102224.94
2022-12-17T02:26:08.191Z,102228.47
2022-12-17T02:28:57.933Z,102229.28
2022-12-17T02:31:45.047Z,102233.69
2022-12-17T02:34:30.458Z,102225.66
2022-12-17T02:37:15.852Z,102234.44
2022-12-17T02:40:01.520Z,102229.06
2022-12-17T02:42:50.139Z,102240.53
2022-12-17T02:45:36.534Z,102236.13
2022-12-17T02:48:23.085Z,102240.56
2022-12-17T02:51:08.447Z,102247.63
2022-12-17T02:53:53.774Z,102240.50
2022-12-17T02:56:40.645Z,102244.03
2022-12-17T02:59:25.724Z,102243.19
2022-12-17T03:02:11.878Z,102234.41
2022-12-17T03:05:10.504Z,102236.22
2022-12-17T03:08:02.797Z,102238.06
2022-12-17T03:10:47.753Z,102249.50
2022-12-17T03:13:44.089Z,102238.84
2022-12-17T03:16:37.098Z,102249.47
2022-12-17T03:19:22.735Z,102252.09
2022-12-17T03:22:07.515Z,102249.47
2022-12-17T03:24:52.624Z,102257.44
2022-12-17T03:27:39.445Z,102259.25
2022-12-17T03:30:24.834Z,102249.53
2022-12-17T03:33:09.921Z,102268.19
2022-12-17T03:35:54.943Z,102268.16
2022-12-17T03:38:39.820Z,102271.66
2022-12-17T03:41:27.002Z,102269.00
2022-12-17T03:44:11.999Z,102265.44
2022-12-17T03:46:56.920Z,102264.59
2022-12-17T03:49:41.663Z,102258.50
2022-12-17T03:52:26.580Z,102256.81
2022-12-17T03:55:11.297Z,102249.78
2022-12-17T03:57:56.321Z,102255.16
2022-12-17T04:00:41.567Z,102255.16
2022-12-17T04:03:26.276Z,102254.34
2022-12-17T04:06:11.368Z,102258.78
2022-12-17T04:08:56.248Z,102258.81
2022-12-17T04:11:41.220Z,102266.72
2022-12-17T04:14:26.307Z,102264.06
2022-12-17T04:17:12.671Z,102259.72
2022-12-17T04:19:57.561Z,102265.09
2022-12-17T04:22:42.470Z,102269.53
2022-12-17T04:25:27.370Z,102276.53
2022-12-17T04:28:12.334Z,102280.88
2022-12-17T04:30:57.347Z,102284.28
2022-12-17T04:33:52.973Z,102293.97
2022-12-17T04:36:37.892Z,102292.09
2022-12-17T04:39:22.878Z,102299.16
2022-12-17T04:42:07.997Z,102304.50
2022-12-17T04:44:52.691Z,102312.41
2022-12-17T04:47:37.747Z,102307.97
2022-12-17T04:50:23.443Z,102314.19
2022-12-17T04:53:08.358Z,102304.47
2022-12-17T04:55:53.125Z,102315.13
2022-12-17T04:58:38.220Z,102316.97
2022-12-17T05:01:23.471Z,102312.63
2022-12-17T05:04:08.576Z,102317.06
2022-12-17T05:06:53.656Z,102320.72
2022-12-17T05:09:38.484Z,102318.09
2022-12-17T05:12:23.784Z,102310.13
2022-12-17T05:15:08.608Z,102311.97
2022-12-17T05:17:53.375Z,102307.56
2022-12-17T05:20:38.151Z,102311.06
2022-12-17T05:23:26.888Z,102314.53
2022-12-17T05:26:24.307Z,102309.19
2022-12-17T05:29:15.451Z,102305.66
2022-12-17T05:32:00.780Z,102312.84
2022-12-17T05:34:46.006Z,102304.09
2022-12-17T05:37:31.094Z,102304.19
2022-12-17T05:40:16.233Z,102306.09
2022-12-17T05:43:01.095Z,102309.72
2022-12-17T05:45:46.027Z,102308.00
2022-12-17T05:48:31.075Z,102312.50
2022-12-17T05:51:15.948Z,102318.75
2022-12-17T05:54:00.875Z,102315.22
2022-12-17T05:56:45.736Z,102317.94
2022-12-17T05:59:30.648Z,102330.44
2022-12-17T06:02:15.747Z,102320.78
2022-12-17T06:05:02.524Z,102330.81
2022-12-17T06:07:48.167Z,102338.06
2022-12-17T06:10:33.039Z,102335.56
2022-12-17T06:13:17.976Z,102339.19
2022-12-17T06:16:08.019Z,102337.41
2022-12-17T06:18:54.159Z,102340.88
2022-12-17T06:21:40.301Z,102346.16
2022-12-17T06:24:25.412Z,102342.59
2022-12-17T06:27:10.988Z,102352.38
2022-12-17T06:29:56.417Z,102351.53
2022-12-17T06:32:41.619Z,102364.81
2022-12-17T06:35:26.911Z,102358.59
2022-12-17T06:38:24.490Z,102352.41
2022-12-17T06:41:12.462Z,102354.19
2022-12-17T06:43:57.507Z,102360.38
2022-12-17T06:46:42.439Z,102359.50
2022-12-17T06:49:27.560Z,102363.03
2022-12-17T06:52:14.739Z,102373.66
2022-12-17T06:55:16.471Z,102370.16
2022-12-17T06:58:01.796Z,102370.25
2022-12-17T07:00:47.089Z,102365.00
2022-12-17T07:03:32.349Z,102378.31
2022-12-17T07:06:20.478Z,102372.06
2022-12-17T07:09:05.688Z,102383.53
2022-12-17T07:11:51.032Z,102383.53
2022-12-17T07:14:36.183Z,102387.06
2022-12-17T07:17:21.371Z,102400.34
2022-12-17T07:20:06.477Z,102400.41
2022-12-17T07:22:52.752Z,102403.09
2022-12-17T07:25:41.616Z,102405.78
2022-12-17T07:28:30.680Z,102409.31
2022-12-17T07:31:16.045Z,102411.06
2022-12-17T07:34:01.200Z,102415.50
2022-12-17T07:36:45.931Z,102422.59
2022-12-17T07:39:30.874Z,102416.34
2022-12-17T07:42:16.026Z,102422.53
2022-12-17T07:45:01.124Z,102430.47
2022-12-17T07:47:46.049Z,102435.78
2022-12-17T07:50:30.877Z,102448.19
2022-12-17T07:53:23.826Z,102442.88
2022-12-17T07:56:10.297Z,102450.81
2022-12-17T07:58:55.454Z,102460.50
2022-12-17T08:01:40.812Z,102457.88
2022-12-17T08:04:45.694Z,102460.53
2022-12-17T08:07:30.719Z,102466.66
2022-12-17T08:10:15.685Z,102463.94
2022-12-17T08:13:00.516Z,102462.16
2022-12-17T08:15:45.695Z,102462.16
2022-12-17T08:18:30.759Z,102462.13
2022-12-17T08:21:15.907Z,102468.31
2022-12-17T08:24:01.006Z,102474.50
2022-12-17T08:26:48.197Z,102484.19
2022-12-17T08:29:33.971Z,102481.53
2022-12-17T08:32:29.803Z,102477.13
2022-12-17T08:35:14.744Z,102473.56
2022-12-17T08:38:00.054Z,102483.31
2022-12-17T08:40:44.921Z,102480.63
2022-12-17T08:43:29.975Z,102486.78
2022-12-17T08:46:15.135Z,102487.63
2022-12-17T08:49:00.412Z,102486.72
2022-12-17T08:51:51.262Z,102499.13
2022-12-17T08:54:36.040Z,102488.50
2022-12-17T08:57:31.456Z,102492.00
2022-12-17T09:00:17.464Z,102488.44
2022-12-17T09:03:02.647Z,102490.09
2022-12-17T09:05:59.459Z,102491.03
2022-12-17T09:08:44.354Z,102489.25
2022-12-17T09:11:29.453Z,102491.03
2022-12-17T09:14:14.372Z,102505.19
2022-12-17T09:16:59.536Z,102505.19
2022-12-17T09:19:44.729Z,102503.44
2022-12-17T09:22:29.592Z,102511.41
2022-12-17T09:25:14.804Z,102515.84
2022-12-17T09:27:59.563Z,102515.03
2022-12-17T09:30:45.025Z,102520.38
2022-12-17T09:33:35.432Z,102523.91
2022-12-17T09:36:24.937Z,102522.97
2022-12-17T09:39:20.706Z,102535.31
2022-12-17T09:42:50.494Z,102533.50
2022-12-17T09:45:44.058Z,102532.56
2022-12-17T09:48:41.630Z,102537.03
2022-12-17T09:51:53.236Z,102541.47
2022-12-17T09:54:46.811Z,102538.81
2022-12-17T09:57:36.881Z,102537.06
2022-12-17T10:00:42.398Z,102537.94
2022-12-17T10:03:31.692Z,102542.31
2022-12-17T10:06:23.046Z,102552.00
2022-12-17T10:09:16.811Z,102552.84
2022-12-17T10:12:02.520Z,102551.91
2022-12-17T10:14:47.818Z,102558.94
2022-12-17T10:17:36.287Z,102553.53
2022-12-17T10:20:23.047Z,102551.69
2022-12-17T10:23:09.082Z,102551.69
2022-12-17T10:25:54.567Z,102544.56
2022-12-17T10:28:43.486Z,102556.09
2022-12-17T10:31:29.990Z,102547.25
2022-12-17T10:34:15.774Z,102549.03
2022-12-17T10:37:07.234Z,102552.56
2022-12-17T10:39:52.657Z,102551.66
2022-12-17T10:42:38.590Z,102545.47
2022-12-17T10:45:40.347Z,102541.97
2022-12-17T10:48:44.700Z,102548.13
2022-12-17T10:51:43.258Z,102547.19
2022-12-17T10:54:42.610Z,102551.53
2022-12-17T10:57:52.000Z,102557.72
2022-12-17T11:00:36.855Z,102558.50
2022-12-17T11:03:22.852Z,102560.25
2022-12-17T11:06:13.134Z,102567.25
2022-12-17T11:08:59.755Z,102557.50
2022-12-17T11:11:45.127Z,102557.56
2022-12-17T11:14:32.453Z,102563.03
2022-12-17T11:17:23.238Z,102559.59
2022-12-17T11:20:26.451Z,102552.59
2022-12-17T11:23:14.989Z,102557.94
2022-12-17T11:26:22.997Z,102557.06
2022-12-17T11:29:08.484Z,102563.25
2022-12-17T11:32:27.892Z,102561.50
2022-12-17T11:35:25.956Z,102572.19
2022-12-17T11:38:40.445Z,102561.53
2022-12-17T11:41:37.053Z,102562.38
2022-12-17T11:44:32.390Z,102561.41
2022-12-17T11:47:56.117Z,102557.91
2022-12-17T11:50:50.711Z,102549.97
2022-12-17T11:53:35.528Z,102552.69
2022-12-17T11:56:45.436Z,102554.53
2022-12-17T11:59:39.765Z,102555.44
2022-12-17T12:02:43.651Z,102542.22
2022-12-17T12:06:05.601Z,102536.97
2022-12-17T12:08:59.613Z,102544.97
2022-12-17T12:11:55.444Z,102549.47
2022-12-17T12:15:03.715Z,102545.13
2022-12-17T12:18:11.291Z,102537.13
2022-12-17T12:21:05.753Z,102542.53
2022-12-17T12:24:02.610Z,102539.06
2022-12-17T12:27:07.047Z,102543.56
2022-12-17T12:30:08.319Z,102540.06
2022-12-17T12:33:40.068Z,102534.91
2022-12-17T12:36:30.130Z,102544.66
2022-12-17T12:39:18.845Z,102555.31
2022-12-17T12:42:13.779Z,102551.75
2022-12-17T12:45:22.736Z,102542.88
2022-12-17T12:48:15.459Z,102539.41
2022-12-17T12:51:09.084Z,102542.16
2022-12-17T12:53:53.886Z,102537.81
2022-12-17T12:56:46.075Z,102533.44
2022-12-17T12:59:43.208Z,102531.69
2022-12-17T13:02:51.646Z,102528.22
2022-12-17T13:05:34.460Z,102529.09
2022-12-17T13:08:10.048Z,102538.84
2022-12-17T13:10:37.063Z,102536.19
2022-12-17T13:13:17.344Z,102531.75
2022-12-17T13:16:17.202Z,102520.25
2022-12-17T13:18:43.741Z,102517.50
2022-12-17T13:21:16.286Z,102524.53
2022-12-17T13:23:43.909Z,102524.47
2022-12-17T13:26:20.268Z,102521.81
2022-12-17T13:29:03.288Z,102520.94
2022-12-17T13:31:52.012Z,102514.78
2022-12-17T13:34:39.801Z,102520.19
2022-12-17T13:37:17.970Z,102516.69
2022-12-17T13:39:57.717Z,102520.25
2022-12-17T13:42:32.368Z,102518.47
2022-12-17T13:44:59.465Z,102516.66
2022-12-17T13:47:28.216Z,102513.91
2022-12-17T13:50:32.823Z,102514.72
2022-12-17T13:52:43.660Z,102518.19
2022-12-17T13:55:19.493Z,102524.34
2022-12-17T13:57:46.693Z,102523.44
2022-12-17T14:00:31.149Z,102531.41
2022-12-17T14:02:58.077Z,102526.03
2022-12-17T14:05:37.364Z,102530.47
2022-12-17T14:08:05.403Z,102525.13
2022-12-17T14:10:32.744Z,102530.38
2022-12-17T14:13:07.175Z,102526.84
2022-12-17T14:15:34.619Z,102532.22
2022-12-17T14:18:02.311Z,102535.78
2022-12-17T14:20:35.311Z,102534.06
2022-12-17T14:23:11.003Z,102528.69
2022-12-17T14:25:39.934Z,102530.50
2022-12-17T14:28:30.031Z,102541.13
2022-12-17T14:34:11.840Z,102545.53
2022-12-17T14:36:41.769Z,102543.78
2022-12-17T14:39:28.960Z,102544.78
2022-12-17T14:42:25.914Z,102551.91
2022-12-17T14:45:20.465Z,102552.88
2022-12-17T14:48:01.272Z,102549.38
2022-12-17T14:50:34.496Z,102549.38
2022-12-17T14:53:22.734Z,102556.44
2022-12-17T14:55:57.278Z,102567.97
2022-12-17T14:58:25.689Z,102567.09
2022-12-17T15:01:09.145Z,102559.19
2022-12-17T15:03:44.150Z,102557.50
2022-12-17T15:06:15.276Z,102569.09
2022-12-17T15:08:47.282Z,102577.97
2022-12-17T15:11:17.104Z,102570.94
2022-12-17T15:13:44.195Z,102566.59
2022-12-17T15:16:13.567Z,102571.94
2022-12-17T15:18:40.409Z,102569.28
2022-12-17T15:21:10.000Z,102582.56
2022-12-17T15:23:40.961Z,102585.19
2022-12-17T15:26:09.699Z,102581.72
2022-12-17T15:28:36.734Z,102593.25
2022-12-17T15:31:03.790Z,102593.25
2022-12-17T15:33:30.715Z,102588.03
2022-12-17T15:35:58.307Z,102594.25
2022-12-17T15:38:24.868Z,102601.41
2022-12-17T15:40:51.366Z,102605.84
2022-12-17T15:43:18.103Z,102597.03
2022-12-17T15:45:49.640Z,102599.69
2022-12-17T15:48:19.363Z,102606.75
2022-12-17T15:50:47.114Z,102605.88
2022-12-17T15:53:14.385Z,102610.31
2022-12-17T15:55:41.324Z,102620.94
2022-12-17T15:58:10.550Z,102621.88
2022-12-17T16:00:37.794Z,102616.63
2022-12-17T16:03:04.432Z,102608.75
2022-12-17T16:05:31.042Z,102616.78
2022-12-17T16:08:02.015Z,102618.56
2022-12-17T16:10:28.700Z,102621.25
2022-12-17T16:12:55.152Z,102628.34
2022-12-17T16:15:21.681Z,102633.66
2022-12-17T16:17:48.183Z,102633.66
2022-12-17T16:20:14.674Z,102631.00
2022-12-17T16:22:41.591Z,102629.25
2022-12-17T16:25:08.661Z,102627.53
2022-12-17T16:27:35.294Z,102626.66
2022-12-17T16:30:03.260Z,102625.78
2022-12-17T16:32:35.959Z,102633.75
2022-12-17T16:35:04.717Z,102630.22
2022-12-17T16:37:31.386Z,102639.03
2022-12-17T16:40:00.206Z,102633.75
2022-12-17T16:42:27.330Z,102640.84
2022-12-17T16:44:53.857Z,102647.03
2022-12-17T16:47:20.432Z,102643.50
2022-12-17T16:49:50.173Z,102634.69
2022-12-17T16:52:16.702Z,102630.31
2022-12-17T16:54:43.227Z,102623.28
2022-12-17T16:57:09.727Z,102627.75
2022-12-17T16:59:36.260Z,102629.50
2022-12-17T17:02:03.055Z,102631.28
2022-12-17T17:04:29.832Z,102632.19
2022-12-17T17:06:57.556Z,102631.31
2022-12-17T17:09:25.658Z,102628.69
2022-12-17T17:11:56.868Z,102634.88
2022-12-17T17:14:24.046Z,102638.41
2022-12-17T17:16:51.079Z,102644.59
2022-12-17T17:19:18.533Z,102636.66
2022-12-17T17:21:51.706Z,102636.69
2022-12-17T17:24:22.085Z,102646.38
2022-12-17T17:26:50.549Z,102655.25
2022-12-17T17:29:17.263Z,102644.69
2022-12-17T17:32:09.133Z,102647.38
2022-12-17T17:34:30.220Z,102642.09
2022-12-17T17:36:56.678Z,102646.53
2022-12-17T17:39:23.259Z,102654.47
2022-12-17T17:41:49.879Z,102646.56
2022-12-17T17:44:16.509Z,102650.06
2022-12-17T17:46:43.347Z,102652.72
2022-12-17T17:49:10.531Z,102658.88
2022-12-17T17:54:28.113Z,102653.66
2022-12-17T17:56:55.415Z,102655.44
2022-12-17T17:59:29.202Z,102665.13
2022-12-17T18:02:00.212Z,102664.25
2022-12-17T18:04:26.972Z,102673.97
2022-12-17T18:07:23.806Z,102670.41
2022-12-17T18:09:39.970Z,102673.06
2022-12-17T18:12:25.602Z,102671.31
2022-12-17T18:17:39.255Z,102678.34
2022-12-17T18:20:06.394Z,102696.88
2022-12-17T18:22:32.954Z,102681.00
2022-12-17T18:24:59.515Z,102685.41
2022-12-17T18:27:26.005Z,102682.78
2022-12-17T18:29:52.596Z,102685.44
2022-12-17T18:32:19.248Z,102678.38
2022-12-17T18:34:45.841Z,102682.78
2022-12-17T18:37:12.365Z,102679.25
2022-12-17T18:39:38.923Z,102677.47
2022-12-17T18:42:24.252Z,102683.66
2022-12-17T18:44:50.745Z,102687.16
2022-12-17T18:47:18.710Z,102679.22
2022-12-17T18:49:45.389Z,102679.22
2022-12-17T18:52:16.468Z,102676.56
2022-12-17T18:54:43.827Z,102678.34
2022-12-17T18:57:10.830Z,102677.44
2022-12-17T18:59:37.479Z,102682.75
2022-12-17T19:02:04.550Z,102673.06
2022-12-17T19:04:32.963Z,102683.66
2022-12-17T19:06:59.798Z,102681.03
2022-12-17T19:09:29.127Z,102681.06
2022-12-17T19:11:56.940Z,102684.59
2022-12-17T19:14:25.093Z,102674.91
2022-12-17T19:16:54.338Z,102680.22
2022-12-17T19:19:21.842Z,102677.56
2022-12-17T19:21:48.831Z,102683.75
2022-12-17T19:24:18.256Z,102688.16
2022-12-17T19:26:45.917Z,102695.22
2022-12-17T19:29:14.407Z,102699.63
2022-12-17T19:31:41.282Z,102702.25
2022-12-17T19:34:11.172Z,102699.59
2022-12-17T19:36:39.369Z,102701.38
2022-12-17T19:39:08.949Z,102711.94
2022-12-17T19:41:35.576Z,102707.53
2022-12-17T19:44:05.104Z,102705.78
2022-12-17T19:46:33.177Z,102710.19
2022-12-17T19:49:00.007Z,102715.47
2022-12-17T19:51:29.421Z,102704.91
2022-12-17T19:53:56.348Z,102701.38
2022-12-17T19:56:30.501Z,102693.41
2022-12-17T19:59:02.169Z,102702.22
2022-12-17T20:01:33.981Z,102701.34
2022-12-17T20:04:01.066Z,102705.75
2022-12-17T20:06:32.051Z,102711.91
2022-12-17T20:08:59.784Z,102709.25
2022-12-17T20:11:32.903Z,102707.50
2022-12-17T20:14:08.540Z,102710.13
2022-12-17T20:16:41.528Z,102714.53
2022-12-17T20:19:11.672Z,102716.31
2022-12-17T20:21:38.698Z,102726.00
2022-12-17T20:24:05.805Z,102727.78
2022-12-17T20:26:33.177Z,102726.00
2022-12-17T20:29:00.137Z,102726.91
2022-12-17T20:31:28.051Z,102725.13
2022-12-17T20:33:54.907Z,102722.50
2022-12-17T20:36:22.559Z,102729.56
2022-12-17T20:38:49.678Z,102731.34
2022-12-17T20:41:24.560Z,102738.41
2022-12-17T20:43:51.744Z,102732.22
2022-12-17T20:46:19.707Z,102731.31
2022-12-17T20:48:46.765Z,102725.13
2022-12-17T20:51:16.903Z,102727.78
2022-12-17T20:53:44.952Z,102726.91
2022-12-17T20:56:14.921Z,102715.44
2022-12-17T20:58:42.636Z,102713.69
2022-12-17T21:01:19.029Z,102719.84
2022-12-17T21:03:47.216Z,102718.09
2022-12-17T21:06:16.628Z,102705.72
2022-12-17T21:08:49.280Z,102706.59
2022-12-17T21:11:24.778Z,102711.00
2022-12-17T21:13:51.826Z,102701.31
2022-12-17T21:16:21.428Z,102707.50
2022-12-17T21:18:48.346Z,102700.44
2022-12-17T21:21:20.747Z,102706.63
2022-12-17T21:23:48.559Z,102712.78
2022-12-17T21:26:18.477Z,102711.91
2022-12-17T21:28:47.127Z,102708.38
2022-12-17T21:31:22.503Z,102710.13
2022-12-17T21:33:50.724Z,102710.13
2022-12-17T21:36:19.988Z,102723.34
2022-12-17T21:38:47.337Z,102726.88
2022-12-17T21:41:16.879Z,102737.47
2022-12-17T21:43:43.861Z,102749.81
2022-12-17T21:46:11.704Z,102746.28
2022-12-17T21:48:42.096Z,102746.28
2022-12-17T21:51:11.889Z,102741.88
2022-12-17T21:53:42.647Z,102735.72
2022-12-17T21:56:12.735Z,102744.56
2022-12-17T21:58:40.826Z,102749.00
2022-12-17T22:01:22.142Z,102749.88
2022-12-17T22:03:54.013Z,102758.72
2022-12-17T22:06:25.089Z,102765.78
2022-12-17T22:09:01.703Z,102769.28
2022-12-17T22:11:40.740Z,102772.81
2022-12-17T22:14:16.994Z,102770.16
2022-12-17T22:16:49.458Z,102768.38
2022-12-17T22:19:23.137Z,102766.63
2022-12-17T22:21:51.466Z,102763.97
2022-12-17T22:24:25.363Z,102749.84
2022-12-17T22:26:59.491Z,102753.38
2022-12-17T22:29:48.287Z,102753.38
2022-12-17T22:32:33.024Z,102754.28
2022-12-17T22:35:45.759Z,102749.88
2022-12-17T22:42:47.840Z,102752.50
2022-12-17T22:44:30.853Z,102748.09
2022-12-17T22:44:45.731Z,102744.56
2022-12-17T22:46:16.835Z,102749.84
2022-12-17T22:48:43.493Z,102750.75
2022-12-17T22:51:13.544Z,102749.88
2022-12-17T22:53:45.149Z,102748.09
2022-12-17T22:56:27.768Z,102753.38
2022-12-17T22:58:59.397Z,102760.47
2022-12-17T23:01:26.656Z,102770.16
2022-12-17T23:03:57.863Z,102758.72
2022-12-17T23:06:24.691Z,102764.88
2022-12-17T23:08:51.519Z,102751.66
2022-12-17T23:11:26.848Z,102756.06
2022-12-17T23:13:54.451Z,102749.00
2022-12-17T23:16:21.480Z,102752.53
2022-12-17T23:18:49.583Z,102747.25
2022-12-17T23:21:19.236Z,102742.84
2022-12-17T23:23:46.132Z,102744.59
2022-12-17T23:26:18.688Z,102735.78
2022-12-17T23:28:46.277Z,102727.84
2022-12-17T23:31:17.640Z,102723.47
2022-12-17T23:33:44.861Z,102715.53
2022-12-17T23:36:14.628Z,102725.22
2022-12-17T23:38:41.238Z,102738.41
2022-12-17T23:41:10.913Z,102742.81
2022-12-17T23:43:38.570Z,102743.69
2022-12-17T23:46:07.064Z,102743.69
2022-12-17T23:48:40.763Z,102738.41
2022-12-17T23:51:14.122Z,102726.06
2022-12-17T23:53:42.004Z,102730.47
2022-12-17T23:56:19.665Z,102736.66
2022-12-17T23:58:47.784Z,102755.16
